sensor_id;sensor_type;location;lat;lon;timestamp;pressure;altitude;pressure_sealevel;temperature;humidity
59531;BME280;45349;48.692;8.186;2022-10-22T00:00:53;98478.72;;;13.20;100.00
59531;BME280;45349;48.692;8.186;2022-10-22T00:03:20;98473.63;;;13.19;100.00
59531;BME280;45349;48.692;8.186;2022-10-22T00:05:47;98482.16;;;13.21;100.00
59531;BME280;45349;48.692;8.186;2022-10-22T00:08:14;98475.59;;;13.17;100.00
59531;BME280;45349;48.692;8.186;2022-10-22T00:10:41;98473.00;;;13.17;100.00
59531;BME280;45349;48.692;8.186;2022-10-22T00:13:09;98492.81;;;13.19;100.00
59531;BME280;45349;48.692;8.186;2022-10-22T00:15:35;98473.81;;;13.17;100.00
59531;BME280;45349;48.692;8.186;2022-10-22T00:18:02;98456.28;;;13.18;100.00
59531;BME280;45349;48.692;8.186;2022-10-22T00:20:29;98420.41;;;13.18;100.00
59531;BME280;45349;48.692;8.186;2022-10-22T00:22:56;98409.75;;;13.20;100.00
59531;BME280;45349;48.692;8.186;2022-10-22T00:25:22;98430.06;;;13.18;100.00
59531;BME280;45349;48.692;8.186;2022-10-22T00:27:49;98431.88;;;13.17;100.00
59531;BME280;45349;48.692;8.186;2022-10-22T00:30:17;98425.34;;;13.13;100.00
59531;BME280;45349;48.692;8.186;2022-10-22T00:32:44;98434.56;;;13.09;100.00
59531;BME280;45349;48.692;8.186;2022-10-22T00:35:10;98428.47;;;13.08;100.00
59531;BME280;45349;48.692;8.186;2022-10-22T00:37:37;98427.16;;;13.12;100.00
59531;BME280;45349;48.692;8.186;2022-10-22T00:40:04;98435.50;;;13.16;100.00
59531;BME280;45349;48.692;8.186;2022-10-22T00:42:31;98443.00;;;13.19;100.00
59531;BME280;45349;48.692;8.186;2022-10-22T00:45:15;98452.84;;;13.17;100.00
59531;BME280;45349;48.692;8.186;2022-10-22T00:47:48;98458.75;;;13.19;100.00
59531;BME280;45349;48.692;8.186;2022-10-22T00:50:18;98458.09;;;13.17;100.00
59531;BME280;45349;48.692;8.186;2022-10-22T00:52:47;98454.31;;;13.20;100.00
59531;BME280;45349;48.692;8.186;2022-10-22T00:55:15;98459.19;;;13.23;100.00
59531;BME280;45349;48.692;8.186;2022-10-22T00:57:42;98472.31;;;13.23;100.00
59531;BME280;45349;48.692;8.186;2022-10-22T01:00:10;98471.00;;;13.19;100.00
59531;BME280;45349;48.692;8.186;2022-10-22T01:02:36;98479.06;;;13.17;100.00
59531;BME280;45349;48.692;8.186;2022-10-22T01:05:05;98472.84;;;13.18;100.00
59531;BME280;45349;48.692;8.186;2022-10-22T01:07:36;98462.81;;;13.22;100.00
59531;BME280;45349;48.692;8.186;2022-10-22T01:10:14;98457.34;;;13.32;100.00
59531;BME280;45349;48.692;8.186;2022-10-22T01:12:49;98468.00;;;13.30;100.00
59531;BME280;45349;48.692;8.186;2022-10-22T01:15:24;98480.63;;;13.26;100.00
59531;BME280;45349;48.692;8.186;2022-10-22T01:17:58;98496.72;;;13.23;100.00
59531;BME280;45349;48.692;8.186;2022-10-22T01:20:56;98496.22;;;13.20;100.00
59531;BME280;45349;48.692;8.186;2022-10-22T01:23:51;98513.94;;;13.18;100.00
59531;BME280;45349;48.692;8.186;2022-10-22T01:26:27;98514.25;;;13.23;100.00
59531;BME280;45349;48.692;8.186;2022-10-22T01:29:07;98512.09;;;13.26;100.00
59531;BME280;45349;48.692;8.186;2022-10-22T01:31:39;98538.78;;;13.30;100.00
59531;BME280;45349;48.692;8.186;2022-10-22T01:34:11;98556.94;;;13.32;100.00
59531;BME280;45349;48.692;8.186;2022-10-22T01:36:39;98564.16;;;13.29;100.00
59531;BME280;45349;48.692;8.186;2022-10-22T01:39:07;98571.56;;;13.26;100.00
59531;BME280;45349;48.692;8.186;2022-10-22T01:41:34;98590.88;;;13.33;100.00
59531;BME280;45349;48.692;8.186;2022-10-22T01:44:01;98610.69;;;13.36;100.00
59531;BME280;45349;48.692;8.186;2022-10-22T01:46:29;98610.53;;;13.37;100.00
59531;BME280;45349;48.692;8.186;2022-10-22T01:49:08;98607.91;;;13.37;100.00
59531;BME280;45349;48.692;8.186;2022-10-22T01:51:50;98607.06;;;13.37;100.00
59531;BME280;45349;48.692;8.186;2022-10-22T01:54:26;98591.34;;;13.37;100.00
59531;BME280;45349;48.692;8.186;2022-10-22T01:57:06;98588.25;;;13.33;100.00
59531;BME280;45349;48.692;8.186;2022-10-22T01:59:43;98554.84;;;13.27;100.00
59531;BME280;45349;48.692;8.186;2022-10-22T02:02:24;98517.97;;;13.28;100.00
59531;BME280;45349;48.692;8.186;2022-10-22T02:04:57;98475.13;;;13.21;100.00
59531;BME280;45349;48.692;8.186;2022-10-22T02:07:29;98465.97;;;13.17;100.00
59531;BME280;45349;48.692;8.186;2022-10-22T02:09:59;98459.75;;;13.10;100.00
59531;BME280;45349;48.692;8.186;2022-10-22T02:12:27;98460.91;;;13.07;100.00
59531;BME280;45349;48.692;8.186;2022-10-22T02:14:56;98448.16;;;13.04;100.00
59531;BME280;45349;48.692;8.186;2022-10-22T02:17:28;98439.50;;;13.04;100.00
59531;BME280;45349;48.692;8.186;2022-10-22T02:20:00;98424.88;;;13.09;100.00
59531;BME280;45349;48.692;8.186;2022-10-22T02:22:27;98419.63;;;13.09;100.00
59531;BME280;45349;48.692;8.186;2022-10-22T02:24:54;98386.84;;;13.13;100.00
59531;BME280;45349;48.692;8.186;2022-10-22T02:27:25;98370.84;;;13.08;100.00
59531;BME280;45349;48.692;8.186;2022-10-22T02:29:57;98363.81;;;13.09;100.00
59531;BME280;45349;48.692;8.186;2022-10-22T02:32:30;98385.09;;;13.06;100.00
59531;BME280;45349;48.692;8.186;2022-10-22T02:34:59;98386.91;;;13.05;100.00
59531;BME280;45349;48.692;8.186;2022-10-22T02:37:26;98377.53;;;13.11;100.00
59531;BME280;45349;48.692;8.186;2022-10-22T02:39:54;98384.56;;;13.10;100.00
59531;BME280;45349;48.692;8.186;2022-10-22T02:42:23;98387.53;;;13.07;100.00
59531;BME280;45349;48.692;8.186;2022-10-22T02:44:50;98394.59;;;13.07;100.00
59531;BME280;45349;48.692;8.186;2022-10-22T02:47:16;98403.31;;;12.99;100.00
59531;BME280;45349;48.692;8.186;2022-10-22T02:49:44;98394.69;;;12.90;100.00
59531;BME280;45349;48.692;8.186;2022-10-22T02:52:11;98412.03;;;12.91;100.00
59531;BME280;45349;48.692;8.186;2022-10-22T02:54:37;98425.94;;;12.92;100.00
59531;BME280;45349;48.692;8.186;2022-10-22T02:57:04;98419.25;;;12.89;100.00
59531;BME280;45349;48.692;8.186;2022-10-22T02:59:30;98429.22;;;12.85;100.00
59531;BME280;45349;48.692;8.186;2022-10-22T03:01:57;98444.63;;;12.80;100.00
59531;BME280;45349;48.692;8.186;2022-10-22T03:04:24;98450.91;;;12.71;100.00
59531;BME280;45349;48.692;8.186;2022-10-22T03:06:52;98439.31;;;12.65;100.00
59531;BME280;45349;48.692;8.186;2022-10-22T03:09:18;98441.13;;;12.65;100.00
59531;BME280;45349;48.692;8.186;2022-10-22T03:11:45;98441.94;;;12.57;100.00
59531;BME280;45349;48.692;8.186;2022-10-22T03:14:11;98447.84;;;12.51;100.00
59531;BME280;45349;48.692;8.186;2022-10-22T03:16:38;98450.66;;;12.49;100.00
59531;BME280;45349;48.692;8.186;2022-10-22T03:19:04;98452.44;;;12.40;100.00
59531;BME280;45349;48.692;8.186;2022-10-22T03:21:34;98461.47;;;12.38;100.00
59531;BME280;45349;48.692;8.186;2022-10-22T03:24:07;98457.56;;;12.34;100.00
59531;BME280;45349;48.692;8.186;2022-10-22T03:26:35;98454.28;;;12.32;100.00
59531;BME280;45349;48.692;8.186;2022-10-22T03:29:03;98463.78;;;12.33;100.00
59531;BME280;45349;48.692;8.186;2022-10-22T03:31:30;98479.94;;;12.28;100.00
59531;BME280;45349;48.692;8.186;2022-10-22T03:33:57;98471.13;;;12.29;100.00
59531;BME280;45349;48.692;8.186;2022-10-22T03:36:24;98488.97;;;12.25;100.00
59531;BME280;45349;48.692;8.186;2022-10-22T03:38:50;98486.16;;;12.27;100.00
59531;BME280;45349;48.692;8.186;2022-10-22T03:41:19;98496.81;;;12.25;100.00
59531;BME280;45349;48.692;8.186;2022-10-22T03:43:45;98490.59;;;12.27;100.00
59531;BME280;45349;48.692;8.186;2022-10-22T03:46:15;98488.97;;;12.25;100.00
59531;BME280;45349;48.692;8.186;2022-10-22T03:48:42;98480.28;;;12.25;100.00
59531;BME280;45349;48.692;8.186;2022-10-22T03:51:08;98486.34;;;12.25;100.00
59531;BME280;45349;48.692;8.186;2022-10-22T03:53:35;98488.13;;;12.25;100.00
59531;BME280;45349;48.692;8.186;2022-10-22T03:56:06;98496.81;;;12.25;100.00
59531;BME280;45349;48.692;8.186;2022-10-22T03:58:35;98493.69;;;12.30;100.00
59531;BME280;45349;48.692;8.186;2022-10-22T04:01:03;98489.94;;;12.33;100.00
59531;BME280;45349;48.692;8.186;2022-10-22T04:03:30;98486.81;;;12.29;100.00
59531;BME280;45349;48.692;8.186;2022-10-22T04:06:00;98484.53;;;12.26;100.00
59531;BME280;45349;48.692;8.186;2022-10-22T04:08:27;98487.97;;;12.27;100.00
59531;BME280;45349;48.692;8.186;2022-10-22T04:10:53;98489.44;;;12.21;100.00
59531;BME280;45349;48.692;8.186;2022-10-22T04:13:20;98485.38;;;12.18;100.00
59531;BME280;45349;48.692;8.186;2022-10-22T04:15:48;98486.84;;;12.13;100.00
59531;BME280;45349;48.692;8.186;2022-10-22T04:18:16;98491.75;;;12.07;100.00
59531;BME280;45349;48.692;8.186;2022-10-22T04:20:42;98482.28;;;12.06;100.00
59531;BME280;45349;48.692;8.186;2022-10-22T04:23:09;98476.72;;;12.01;100.00
59531;BME280;45349;48.692;8.186;2022-10-22T04:25:36;98496.81;;;12.09;100.00
59531;BME280;45349;48.692;8.186;2022-10-22T04:28:05;98490.47;;;12.12;100.00
59531;BME280;45349;48.692;8.186;2022-10-22T04:30:32;98492.56;;;12.16;100.00
59531;BME280;45349;48.692;8.186;2022-10-22T04:32:59;98493.88;;;12.12;100.00
59531;BME280;45349;48.692;8.186;2022-10-22T04:35:26;98476.06;;;12.07;100.00
59531;BME280;45349;48.692;8.186;2022-10-22T04:37:53;98493.53;;;12.07;100.00
59531;BME280;45349;48.692;8.186;2022-10-22T04:40:20;98499.44;;;12.09;100.00
59531;BME280;45349;48.692;8.186;2022-10-22T04:42:46;98505.00;;;12.14;100.00
59531;BME280;45349;48.692;8.186;2022-10-22T04:45:13;98498.78;;;12.07;100.00
59531;BME280;45349;48.692;8.186;2022-10-22T04:47:40;98504.66;;;12.09;100.00
59531;BME280;45349;48.692;8.186;2022-10-22T04:50:08;98501.25;;;12.08;100.00
59531;BME280;45349;48.692;8.186;2022-10-22T04:52:35;98497.78;;;12.00;100.00
59531;BME280;45349;48.692;8.186;2022-10-22T04:55:01;98502.66;;;11.94;100.00
59531;BME280;45349;48.692;8.186;2022-10-22T04:57:28;98507.91;;;11.94;100.00
59531;BME280;45349;48.692;8.186;2022-10-22T04:59:55;98503.00;;;11.91;100.00
59531;BME280;45349;48.692;8.186;2022-10-22T05:02:22;98510.19;;;11.89;100.00
59531;BME280;45349;48.692;8.186;2022-10-22T05:04:48;98514.44;;;11.90;100.00
59531;BME280;45349;48.692;8.186;2022-10-22T05:07:16;98510.03;;;11.91;100.00
59531;BME280;45349;48.692;8.186;2022-10-22T05:09:43;98522.44;;;11.89;100.00
59531;BME280;45349;48.692;8.186;2022-10-22T05:12:09;98526.22;;;11.94;100.00
59531;BME280;45349;48.692;8.186;2022-10-22T05:14:36;98525.09;;;11.97;100.00
59531;BME280;45349;48.692;8.186;2022-10-22T05:17:03;98539.97;;;12.05;100.00
59531;BME280;45349;48.692;8.186;2022-10-22T05:19:30;98529.38;;;12.06;100.00
59531;BME280;45349;48.692;8.186;2022-10-22T05:21:59;98532.97;;;12.14;100.00
59531;BME280;45349;48.692;8.186;2022-10-22T05:24:28;98532.66;;;12.17;100.00
59531;BME280;45349;48.692;8.186;2022-10-22T05:26:57;98538.34;;;12.12;100.00
59531;BME280;45349;48.692;8.186;2022-10-22T05:29:24;98540.00;;;12.13;100.00
59531;BME280;45349;48.692;8.186;2022-10-22T05:31:52;98547.50;;;12.08;100.00
59531;BME280;45349;48.692;8.186;2022-10-22T05:34:19;98549.00;;;12.02;100.00
59531;BME280;45349;48.692;8.186;2022-10-22T05:36:45;98561.69;;;11.97;100.00
59531;BME280;45349;48.692;8.186;2022-10-22T05:39:12;98567.25;;;11.94;100.00
59531;BME280;45349;48.692;8.186;2022-10-22T05:41:40;98565.44;;;11.94;100.00
59531;BME280;45349;48.692;8.186;2022-10-22T05:44:06;98577.88;;;11.92;100.00
59531;BME280;45349;48.692;8.186;2022-10-22T05:46:34;98573.47;;;11.93;100.00
59531;BME280;45349;48.692;8.186;2022-10-22T05:49:03;98580.34;;;11.94;100.00
59531;BME280;45349;48.692;8.186;2022-10-22T05:51:32;98583.44;;;11.98;100.00
59531;BME280;45349;48.692;8.186;2022-10-22T05:54:01;98578.88;;;12.00;100.00
59531;BME280;45349;48.692;8.186;2022-10-22T05:56:29;98582.44;;;11.99;100.00
59531;BME280;45349;48.692;8.186;2022-10-22T05:58:58;98585.72;;;11.92;100.00
59531;BME280;45349;48.692;8.186;2022-10-22T06:01:27;98587.34;;;11.93;100.00
59531;BME280;45349;48.692;8.186;2022-10-22T06:03:55;98585.72;;;11.92;100.00
59531;BME280;45349;48.692;8.186;2022-10-22T06:06:28;98584.69;;;11.77;100.00
59531;BME280;45349;48.692;8.186;2022-10-22T06:09:00;98591.53;;;11.70;100.00
59531;BME280;45349;48.692;8.186;2022-10-22T06:11:28;98591.38;;;11.63;100.00
59531;BME280;45349;48.692;8.186;2022-10-22T06:13:54;98592.03;;;11.65;100.00
59531;BME280;45349;48.692;8.186;2022-10-22T06:16:22;98601.66;;;11.56;100.00
59531;BME280;45349;48.692;8.186;2022-10-22T06:18:49;98608.00;;;11.54;100.00
59531;BME280;45349;48.692;8.186;2022-10-22T06:21:15;98607.16;;;11.45;100.00
59531;BME280;45349;48.692;8.186;2022-10-22T06:23:42;98606.50;;;11.43;100.00
59531;BME280;45349;48.692;8.186;2022-10-22T06:26:09;98609.09;;;11.43;100.00
59531;BME280;45349;48.692;8.186;2022-10-22T06:28:36;98611.72;;;11.43;100.00
59531;BME280;45349;48.692;8.186;2022-10-22T06:31:04;98613.66;;;11.41;100.00
59531;BME280;45349;48.692;8.186;2022-10-22T06:33:32;98614.78;;;11.38;100.00
59531;BME280;45349;48.692;8.186;2022-10-22T06:36:05;98618.91;;;11.41;100.00
59531;BME280;45349;48.692;8.186;2022-10-22T06:38:31;98619.22;;;11.37;100.00
59531;BME280;45349;48.692;8.186;2022-10-22T06:41:01;98616.25;;;11.32;100.00
59531;BME280;45349;48.692;8.186;2022-10-22T06:43:28;98618.53;;;11.35;100.00
59531;BME280;45349;48.692;8.186;2022-10-22T06:45:58;98624.56;;;11.36;100.00
59531;BME280;45349;48.692;8.186;2022-10-22T06:48:24;98632.94;;;11.40;100.00
59531;BME280;45349;48.692;8.186;2022-10-22T06:50:52;98629.84;;;11.44;100.00
59531;BME280;45349;48.692;8.186;2022-10-22T06:53:19;98634.44;;;11.50;100.00
59531;BME280;45349;48.692;8.186;2022-10-22T06:55:45;98635.66;;;11.64;100.00
59531;BME280;45349;48.692;8.186;2022-10-22T06:58:12;98649.31;;;11.93;100.00
59531;BME280;45349;48.692;8.186;2022-10-22T07:00:38;98648.09;;;12.14;100.00
59531;BME280;45349;48.692;8.186;2022-10-22T07:03:05;98661.72;;;12.34;100.00
59531;BME280;45349;48.692;8.186;2022-10-22T07:05:32;98656.50;;;12.50;100.00
59531;BME280;45349;48.692;8.186;2022-10-22T07:08:00;98664.50;;;12.65;100.00
59531;BME280;45349;48.692;8.186;2022-10-22T07:10:27;98661.72;;;12.83;100.00
59531;BME280;45349;48.692;8.186;2022-10-22T07:12:53;98658.75;;;13.03;100.00
59531;BME280;45349;48.692;8.186;2022-10-22T07:15:20;98666.47;;;13.13;100.00
59531;BME280;45349;48.692;8.186;2022-10-22T07:17:46;98660.69;;;13.26;100.00
59531;BME280;45349;48.692;8.186;2022-10-22T07:20:13;98663.75;;;13.38;100.00
59531;BME280;45349;48.692;8.186;2022-10-22T07:22:40;98663.63;;;13.48;100.00
59531;BME280;45349;48.692;8.186;2022-10-22T07:25:09;98678.00;;;13.60;100.00
59531;BME280;45349;48.692;8.186;2022-10-22T07:27:35;98673.19;;;13.72;100.00
59531;BME280;45349;48.692;8.186;2022-10-22T07:30:02;98680.84;;;13.82;100.00
59531;BME280;45349;48.692;8.186;2022-10-22T07:32:29;98685.72;;;13.93;100.00
59531;BME280;45349;48.692;8.186;2022-10-22T07:34:56;98683.84;;;14.10;100.00
59531;BME280;45349;48.692;8.186;2022-10-22T07:37:22;98685.81;;;14.16;100.00
59531;BME280;45349;48.692;8.186;2022-10-22T07:39:49;98680.03;;;14.21;100.00
59531;BME280;45349;48.692;8.186;2022-10-22T07:42:17;98691.31;;;14.30;100.00
59531;BME280;45349;48.692;8.186;2022-10-22T07:44:43;98698.81;;;14.33;100.00
59531;BME280;45349;48.692;8.186;2022-10-22T07:47:10;98694.00;;;14.45;99.77
59531;BME280;45349;48.692;8.186;2022-10-22T07:49:36;98697.72;;;14.51;99.90
59531;BME280;45349;48.692;8.186;2022-10-22T07:52:03;98701.19;;;14.51;100.00
59531;BME280;45349;48.692;8.186;2022-10-22T07:54:31;98703.91;;;14.58;100.00
59531;BME280;45349;48.692;8.186;2022-10-22T07:56:58;98691.41;;;14.60;100.00
59531;BME280;45349;48.692;8.186;2022-10-22T07:59:26;98704.69;;;14.67;100.00
59531;BME280;45349;48.692;8.186;2022-10-22T08:01:52;98706.63;;;14.73;100.00
59531;BME280;45349;48.692;8.186;2022-10-22T08:04:19;98714.34;;;14.74;100.00
59531;BME280;45349;48.692;8.186;2022-10-22T08:06:45;98712.28;;;14.85;98.60
59531;BME280;45349;48.692;8.186;2022-10-22T08:09:12;98709.75;;;14.91;97.67
59531;BME280;45349;48.692;8.186;2022-10-22T08:11:38;98710.53;;;15.00;95.07
59531;BME280;45349;48.692;8.186;2022-10-22T08:14:05;98708.88;;;14.99;95.11
59531;BME280;45349;48.692;8.186;2022-10-22T08:16:33;98710.75;;;14.90;96.76
59531;BME280;45349;48.692;8.186;2022-10-22T08:18:59;98712.22;;;14.93;96.76
59531;BME280;45349;48.692;8.186;2022-10-22T08:21:26;98717.34;;;14.86;96.31
59531;BME280;45349;48.692;8.186;2022-10-22T08:23:52;98725.72;;;14.90;95.11
59531;BME280;45349;48.692;8.186;2022-10-22T08:26:19;98719.75;;;14.96;94.14
59531;BME280;45349;48.692;8.186;2022-10-22T08:28:46;98721.56;;;14.96;96.34
59531;BME280;45349;48.692;8.186;2022-10-22T08:31:12;98732.34;;;15.01;95.59
59531;BME280;45349;48.692;8.186;2022-10-22T08:33:40;98731.56;;;15.00;94.46
59531;BME280;45349;48.692;8.186;2022-10-22T08:36:08;98724.03;;;14.97;96.04
59531;BME280;45349;48.692;8.186;2022-10-22T08:38:34;98732.72;;;14.98;96.67
59531;BME280;45349;48.692;8.186;2022-10-22T08:41:07;98727.44;;;14.98;96.45
59531;BME280;45349;48.692;8.186;2022-10-22T08:43:57;98729.66;;;15.09;93.11
59531;BME280;45349;48.692;8.186;2022-10-22T08:46:46;98737.53;;;15.09;93.87
59531;BME280;45349;48.692;8.186;2022-10-22T08:49:20;98744.72;;;15.15;93.09
59531;BME280;45349;48.692;8.186;2022-10-22T08:51:49;98745.09;;;15.12;93.08
59531;BME280;45349;48.692;8.186;2022-10-22T08:54:22;98747.34;;;15.15;92.97
59531;BME280;45349;48.692;8.186;2022-10-22T08:57:00;98750.63;;;15.17;94.83
59531;BME280;45349;48.692;8.186;2022-10-22T08:59:36;98740.88;;;15.26;93.25
59531;BME280;45349;48.692;8.186;2022-10-22T09:02:18;98750.84;;;15.31;93.37
59531;BME280;45349;48.692;8.186;2022-10-22T09:04:56;98756.09;;;15.31;92.26
59531;BME280;45349;48.692;8.186;2022-10-22T09:07:26;98745.06;;;15.35;92.74
59531;BME280;45349;48.692;8.186;2022-10-22T09:09:53;98759.38;;;15.48;94.60
59531;BME280;45349;48.692;8.186;2022-10-22T09:12:23;98769.66;;;15.58;92.50
59531;BME280;45349;48.692;8.186;2022-10-22T09:14:52;98769.03;;;15.71;90.46
59531;BME280;45349;48.692;8.186;2022-10-22T09:17:25;98768.41;;;15.84;90.90
59531;BME280;45349;48.692;8.186;2022-10-22T09:20:08;98763.06;;;15.92;91.19
59531;BME280;45349;48.692;8.186;2022-10-22T09:22:39;98769.72;;;16.03;90.95
59531;BME280;45349;48.692;8.186;2022-10-22T09:25:18;98772.34;;;16.03;93.56
59531;BME280;45349;48.692;8.186;2022-10-22T09:27:46;98768.16;;;16.08;89.79
59531;BME280;45349;48.692;8.186;2022-10-22T09:30:15;98777.59;;;16.18;89.38
59531;BME280;45349;48.692;8.186;2022-10-22T09:32:42;98778.84;;;16.22;88.88
59531;BME280;45349;48.692;8.186;2022-10-22T09:35:11;98780.47;;;16.23;89.84
59531;BME280;45349;48.692;8.186;2022-10-22T09:37:47;98792.38;;;16.34;85.28
59531;BME280;45349;48.692;8.186;2022-10-22T09:40:15;98789.81;;;16.41;86.58
59531;BME280;45349;48.692;8.186;2022-10-22T09:42:43;98801.72;;;16.36;86.01
59531;BME280;45349;48.692;8.186;2022-10-22T09:45:16;98797.63;;;16.49;83.88
59531;BME280;45349;48.692;8.186;2022-10-22T09:47:43;98802.78;;;16.57;82.54
59531;BME280;45349;48.692;8.186;2022-10-22T09:50:19;98803.31;;;16.52;85.42
59531;BME280;45349;48.692;8.186;2022-10-22T09:52:56;98801.28;;;16.70;83.20
59531;BME280;45349;48.692;8.186;2022-10-22T09:55:24;98805.81;;;16.76;83.55
59531;BME280;45349;48.692;8.186;2022-10-22T09:57:52;98803.56;;;16.73;85.59
59531;BME280;45349;48.692;8.186;2022-10-22T10:00:19;98797.47;;;16.72;82.95
59531;BME280;45349;48.692;8.186;2022-10-22T10:02:53;98806.50;;;16.85;83.83
59531;BME280;45349;48.692;8.186;2022-10-22T10:05:27;98799.97;;;16.80;85.10
59531;BME280;45349;48.692;8.186;2022-10-22T10:07:55;98804.25;;;16.81;84.37
59531;BME280;45349;48.692;8.186;2022-10-22T10:10:30;98801.13;;;16.93;84.41
59531;BME280;45349;48.692;8.186;2022-10-22T10:13:02;98801.19;;;17.00;80.05
59531;BME280;45349;48.692;8.186;2022-10-22T10:15:39;98806.47;;;17.00;83.54
59531;BME280;45349;48.692;8.186;2022-10-22T10:18:19;98807.59;;;17.12;82.53
59531;BME280;45349;48.692;8.186;2022-10-22T10:20:54;98813.25;;;17.09;82.77
59531;BME280;45349;48.692;8.186;2022-10-22T10:23:29;98819.50;;;17.23;81.97
59531;BME280;45349;48.692;8.186;2022-10-22T10:26:00;98834.09;;;17.25;79.68
59531;BME280;45349;48.692;8.186;2022-10-22T10:28:47;98823.81;;;17.09;80.62
59531;BME280;45349;48.692;8.186;2022-10-22T10:31:20;98817.41;;;17.18;81.31
59531;BME280;45349;48.692;8.186;2022-10-22T10:33:56;98822.31;;;17.21;82.62
59531;BME280;45349;48.692;8.186;2022-10-22T10:36:35;98816.53;;;17.33;79.59
59531;BME280;45349;48.692;8.186;2022-10-22T10:39:07;98819.78;;;17.35;82.83
59531;BME280;45349;48.692;8.186;2022-10-22T10:41:49;98818.41;;;17.39;78.08
59531;BME280;45349;48.692;8.186;2022-10-22T10:44:40;98820.41;;;17.37;81.27
59531;BME280;45349;48.692;8.186;2022-10-22T10:47:23;98810.44;;;17.32;77.60
59531;BME280;45349;48.692;8.186;2022-10-22T10:50:00;98812.94;;;17.40;79.26
59531;BME280;45349;48.692;8.186;2022-10-22T10:52:33;98817.50;;;17.53;75.97
59531;BME280;45349;48.692;8.186;2022-10-22T10:55:12;98827.53;;;17.65;77.17
59531;BME280;45349;48.692;8.186;2022-10-22T10:57:47;98824.06;;;17.64;77.77
59531;BME280;45349;48.692;8.186;2022-10-22T11:00:18;98827.53;;;17.65;76.02
59531;BME280;45349;48.692;8.186;2022-10-22T11:05:52;98817.84;;;17.72;74.38
59531;BME280;45349;48.692;8.186;2022-10-22T11:08:22;98816.31;;;17.84;73.48
59531;BME280;45349;48.692;8.186;2022-10-22T11:10:51;98814.31;;;17.93;74.02
59531;BME280;45349;48.692;8.186;2022-10-22T11:13:27;98815.31;;;17.92;74.89
59531;BME280;45349;48.692;8.186;2022-10-22T11:16:00;98817.50;;;17.82;71.07
59531;BME280;45349;48.692;8.186;2022-10-22T11:18:31;98812.03;;;17.83;69.86
59531;BME280;45349;48.692;8.186;2022-10-22T11:21:10;98814.03;;;17.81;71.25
59531;BME280;45349;48.692;8.186;2022-10-22T11:23:43;98813.91;;;17.90;74.31
59531;BME280;45349;48.692;8.186;2022-10-22T11:26:23;98802.31;;;17.91;73.60
59531;BME280;45349;48.692;8.186;2022-10-22T11:28:52;98805.00;;;17.97;73.14
59531;BME280;45349;48.692;8.186;2022-10-22T11:31:22;98808.63;;;17.90;73.62
59531;BME280;45349;48.692;8.186;2022-10-22T11:33:53;98808.47;;;17.98;72.64
59531;BME280;45349;48.692;8.186;2022-10-22T11:36:24;98822.47;;;17.98;71.30
59531;BME280;45349;48.692;8.186;2022-10-22T11:38:54;98819.34;;;18.17;70.74
59531;BME280;45349;48.692;8.186;2022-10-22T11:41:23;98806.91;;;18.10;72.70
59531;BME280;45349;48.692;8.186;2022-10-22T11:44:08;98807.53;;;18.12;74.23
59531;BME280;45349;48.692;8.186;2022-10-22T11:46:43;98812.25;;;18.17;73.84
59531;BME280;45349;48.692;8.186;2022-10-22T11:49:22;98807.97;;;18.16;71.05
59531;BME280;45349;48.692;8.186;2022-10-22T11:51:49;98800.28;;;18.21;67.60
59531;BME280;45349;48.692;8.186;2022-10-22T11:54:31;98811.03;;;18.20;67.62
59531;BME280;45349;48.692;8.186;2022-10-22T11:57:18;98801.50;;;18.25;68.21
59531;BME280;45349;48.692;8.186;2022-10-22T11:59:49;98801.44;;;18.12;71.25
59531;BME280;45349;48.692;8.186;2022-10-22T12:05:34;98795.00;;;18.28;66.87
59531;BME280;45349;48.692;8.186;2022-10-22T12:08:17;98806.84;;;18.39;69.93
59531;BME280;45349;48.692;8.186;2022-10-22T12:10:59;98801.81;;;18.51;66.60
59531;BME280;45349;48.692;8.186;2022-10-22T12:13:30;98796.53;;;18.51;66.36
59531;BME280;45349;48.692;8.186;2022-10-22T12:15:58;98804.25;;;18.52;63.80
59531;BME280;45349;48.692;8.186;2022-10-22T12:18:33;98799.38;;;18.56;65.18
59531;BME280;45349;48.692;8.186;2022-10-22T12:21:00;98788.41;;;18.66;62.42
59531;BME280;45349;48.692;8.186;2022-10-22T12:23:30;98790.47;;;18.77;65.29
59531;BME280;45349;48.692;8.186;2022-10-22T12:26:02;98791.06;;;18.66;64.20
59531;BME280;45349;48.692;8.186;2022-10-22T12:28:36;98790.25;;;18.65;66.13
59531;BME280;45349;48.692;8.186;2022-10-22T12:31:03;98784.97;;;18.72;65.96
59531;BME280;45349;48.692;8.186;2022-10-22T12:33:30;98791.09;;;18.72;64.70
59531;BME280;45349;48.692;8.186;2022-10-22T12:35:57;98789.47;;;18.71;65.82
59531;BME280;45349;48.692;8.186;2022-10-22T12:38:28;98791.09;;;18.72;61.69
59531;BME280;45349;48.692;8.186;2022-10-22T12:40:56;98792.34;;;18.90;63.53
59531;BME280;45349;48.692;8.186;2022-10-22T12:43:27;98788.47;;;18.79;60.65
59531;BME280;45349;48.692;8.186;2022-10-22T12:45:55;98787.44;;;18.80;63.87
59531;BME280;45349;48.692;8.186;2022-10-22T12:48:24;98784.81;;;18.87;61.15
59531;BME280;45349;48.692;8.186;2022-10-22T12:50:54;98779.94;;;18.91;61.28
59531;BME280;45349;48.692;8.186;2022-10-22T12:53:23;98787.94;;;18.97;60.52
59531;BME280;45349;48.692;8.186;2022-10-22T12:55:58;98782.19;;;18.94;60.53
59531;BME280;45349;48.692;8.186;2022-10-22T12:58:31;98780.19;;;19.02;56.29
59531;BME280;45349;48.692;8.186;2022-10-22T13:00:59;98778.56;;;19.08;54.05
59531;BME280;45349;48.692;8.186;2022-10-22T13:03:31;98769.00;;;19.14;57.15
59531;BME280;45349;48.692;8.186;2022-10-22T13:06:11;98781.19;;;19.15;60.22
59531;BME280;45349;48.692;8.186;2022-10-22T13:08:40;98779.38;;;19.22;57.66
59531;BME280;45349;48.692;8.186;2022-10-22T13:11:09;98785.88;;;19.13;58.93
59531;BME280;45349;48.692;8.186;2022-10-22T13:13:43;98776.34;;;19.18;59.74
59531;BME280;45349;48.692;8.186;2022-10-22T13:16:12;98769.59;;;19.29;56.94